sensor_id;sensor_type;location;lat;lon;timestamp;P1;durP1;ratioP1;P2;durP2;ratioP2
10596;SDS011;5346;48.766;8.674;2023-03-01T00:01:31;24.27;;;15.20;;
10596;SDS011;5346;48.766;8.674;2023-03-01T00:03:58;25.60;;;14.53;;
10596;SDS011;5346;48.766;8.674;2023-03-01T00:06:26;26.27;;;15.37;;
10596;SDS011;5346;48.766;8.674;2023-03-01T00:08:59;23.37;;;14.77;;
10596;SDS011;5346;48.766;8.674;2023-03-01T00:11:30;23.20;;;14.63;;
10596;SDS011;5346;48.766;8.674;2023-03-01T00:14:05;31.03;;;14.87;;
10596;SDS011;5346;48.766;8.674;2023-03-01T00:16:36;24.27;;;15.40;;
10596;SDS011;5346;48.766;8.674;2023-03-01T00:19:16;23.07;;;15.13;;
10596;SDS011;5346;48.766;8.674;2023-03-01T00:21:51;23.93;;;13.70;;
10596;SDS011;5346;48.766;8.674;2023-03-01T00:24:24;30.13;;;15.70;;
10596;SDS011;5346;48.766;8.674;2023-03-01T00:26:55;22.50;;;14.13;;
10596;SDS011;5346;48.766;8.674;2023-03-01T00:29:28;24.57;;;15.53;;
10596;SDS011;5346;48.766;8.674;2023-03-01T00:31:55;26.13;;;15.67;;
10596;SDS011;5346;48.766;8.674;2023-03-01T00:34:29;25.77;;;15.20;;
10596;SDS011;5346;48.766;8.674;2023-03-01T00:36:56;24.17;;;14.60;;
10596;SDS011;5346;48.766;8.674;2023-03-01T00:39:37;23.10;;;14.80;;
10596;SDS011;5346;48.766;8.674;2023-03-01T00:42:07;26.33;;;16.27;;
10596;SDS011;5346;48.766;8.674;2023-03-01T00:44:40;24.97;;;14.80;;
10596;SDS011;5346;48.766;8.674;2023-03-01T00:47:21;23.87;;;15.27;;
10596;SDS011;5346;48.766;8.674;2023-03-01T00:50:01;25.37;;;14.97;;
10596;SDS011;5346;48.766;8.674;2023-03-01T00:52:35;27.53;;;15.03;;
10596;SDS011;5346;48.766;8.674;2023-03-01T00:55:03;28.87;;;15.27;;
10596;SDS011;5346;48.766;8.674;2023-03-01T00:57:37;29.90;;;15.30;;
10596;SDS011;5346;48.766;8.674;2023-03-01T01:00:11;27.17;;;16.47;;
10596;SDS011;5346;48.766;8.674;2023-03-01T01:02:45;25.77;;;14.93;;
10596;SDS011;5346;48.766;8.674;2023-03-01T01:05:13;27.90;;;15.80;;
10596;SDS011;5346;48.766;8.674;2023-03-01T01:07:47;27.50;;;16.00;;
10596;SDS011;5346;48.766;8.674;2023-03-01T01:10:14;27.73;;;16.13;;
10596;SDS011;5346;48.766;8.674;2023-03-01T01:12:50;28.67;;;14.97;;
10596;SDS011;5346;48.766;8.674;2023-03-01T01:15:24;28.53;;;16.57;;
10596;SDS011;5346;48.766;8.674;2023-03-01T01:17:51;27.50;;;16.80;;
10596;SDS011;5346;48.766;8.674;2023-03-01T01:20:24;24.43;;;15.27;;
10596;SDS011;5346;48.766;8.674;2023-03-01T01:22:51;26.00;;;15.90;;
10596;SDS011;5346;48.766;8.674;2023-03-01T01:25:18;30.13;;;15.90;;
10596;SDS011;5346;48.766;8.674;2023-03-01T01:27:52;25.63;;;15.53;;
10596;SDS011;5346;48.766;8.674;2023-03-01T01:30:25;34.30;;;16.67;;
10596;SDS011;5346;48.766;8.674;2023-03-01T01:32:58;27.07;;;17.07;;
10596;SDS011;5346;48.766;8.674;2023-03-01T01:35:31;27.43;;;16.53;;
10596;SDS011;5346;48.766;8.674;2023-03-01T01:38:04;30.73;;;17.20;;
10596;SDS011;5346;48.766;8.674;2023-03-01T01:40:31;29.70;;;17.83;;
10596;SDS011;5346;48.766;8.674;2023-03-01T01:43:20;32.47;;;17.67;;
10596;SDS011;5346;48.766;8.674;2023-03-01T01:45:55;25.87;;;16.97;;
10596;SDS011;5346;48.766;8.674;2023-03-01T01:48:46;28.27;;;17.73;;
10596;SDS011;5346;48.766;8.674;2023-03-01T01:51:28;29.97;;;17.90;;
10596;SDS011;5346;48.766;8.674;2023-03-01T01:54:19;29.60;;;17.40;;
10596;SDS011;5346;48.766;8.674;2023-03-01T01:57:02;31.57;;;16.33;;
10596;SDS011;5346;48.766;8.674;2023-03-01T01:59:42;29.60;;;17.27;;
10596;SDS011;5346;48.766;8.674;2023-03-01T02:02:24;31.77;;;18.90;;
10596;SDS011;5346;48.766;8.674;2023-03-01T02:05:02;28.67;;;18.23;;
10596;SDS011;5346;48.766;8.674;2023-03-01T02:08:21;29.67;;;17.63;;
10596;SDS011;5346;48.766;8.674;2023-03-01T02:11:02;27.73;;;16.93;;
10596;SDS011;5346;48.766;8.674;2023-03-01T02:13:36;30.37;;;16.93;;
10596;SDS011;5346;48.766;8.674;2023-03-01T02:16:05;32.63;;;17.80;;
10596;SDS011;5346;48.766;8.674;2023-03-01T02:18:43;32.13;;;18.53;;
10596;SDS011;5346;48.766;8.674;2023-03-01T02:21:25;30.30;;;18.50;;
10596;SDS011;5346;48.766;8.674;2023-03-01T02:24:36;33.07;;;18.33;;
10596;SDS011;5346;48.766;8.674;2023-03-01T02:30:50;35.47;;;18.60;;
10596;SDS011;5346;48.766;8.674;2023-03-01T02:33:44;33.17;;;18.67;;
10596;SDS011;5346;48.766;8.674;2023-03-01T02:36:24;31.63;;;18.70;;
10596;SDS011;5346;48.766;8.674;2023-03-01T02:39:03;34.57;;;18.23;;
10596;SDS011;5346;48.766;8.674;2023-03-01T02:41:48;32.90;;;19.13;;
10596;SDS011;5346;48.766;8.674;2023-03-01T02:44:25;36.90;;;19.63;;
10596;SDS011;5346;48.766;8.674;2023-03-01T02:47:00;35.83;;;18.90;;
10596;SDS011;5346;48.766;8.674;2023-03-01T02:49:36;33.77;;;18.70;;
10596;SDS011;5346;48.766;8.674;2023-03-01T02:55:17;29.90;;;19.30;;
10596;SDS011;5346;48.766;8.674;2023-03-01T02:57:45;32.40;;;18.53;;
10596;SDS011;5346;48.766;8.674;2023-03-01T03:00:28;34.10;;;20.03;;
10596;SDS011;5346;48.766;8.674;2023-03-01T03:03:20;31.93;;;18.57;;
10596;SDS011;5346;48.766;8.674;2023-03-01T03:05:54;34.47;;;19.33;;
10596;SDS011;5346;48.766;8.674;2023-03-01T03:08:27;38.23;;;19.90;;
10596;SDS011;5346;48.766;8.674;2023-03-01T03:10:54;32.33;;;18.30;;
10596;SDS011;5346;48.766;8.674;2023-03-01T03:13:28;33.00;;;19.07;;
10596;SDS011;5346;48.766;8.674;2023-03-01T03:15:56;37.27;;;19.97;;
10596;SDS011;5346;48.766;8.674;2023-03-01T03:18:24;33.07;;;18.53;;
10596;SDS011;5346;48.766;8.674;2023-03-01T03:21:00;35.63;;;20.47;;
10596;SDS011;5346;48.766;8.674;2023-03-01T03:23:27;35.40;;;20.10;;
10596;SDS011;5346;48.766;8.674;2023-03-01T03:26:02;36.10;;;21.97;;
10596;SDS011;5346;48.766;8.674;2023-03-01T03:28:31;37.80;;;20.97;;
10596;SDS011;5346;48.766;8.674;2023-03-01T03:31:07;37.20;;;21.67;;
10596;SDS011;5346;48.766;8.674;2023-03-01T03:33:40;42.43;;;22.27;;
10596;SDS011;5346;48.766;8.674;2023-03-01T03:36:19;36.27;;;21.23;;
10596;SDS011;5346;48.766;8.674;2023-03-01T03:38:56;39.47;;;22.00;;
10596;SDS011;5346;48.766;8.674;2023-03-01T03:41:29;39.13;;;21.50;;
10596;SDS011;5346;48.766;8.674;2023-03-01T03:44:02;38.73;;;22.57;;
10596;SDS011;5346;48.766;8.674;2023-03-01T03:46:36;37.87;;;22.30;;
10596;SDS011;5346;48.766;8.674;2023-03-01T03:49:16;38.60;;;22.33;;
10596;SDS011;5346;48.766;8.674;2023-03-01T03:51:44;42.87;;;22.17;;
10596;SDS011;5346;48.766;8.674;2023-03-01T03:54:18;34.87;;;20.60;;
10596;SDS011;5346;48.766;8.674;2023-03-01T03:56:45;41.00;;;22.10;;
10596;SDS011;5346;48.766;8.674;2023-03-01T03:59:19;36.27;;;20.93;;
10596;SDS011;5346;48.766;8.674;2023-03-01T04:01:53;39.27;;;22.03;;
10596;SDS011;5346;48.766;8.674;2023-03-01T04:04:26;34.50;;;20.90;;
10596;SDS011;5346;48.766;8.674;2023-03-01T04:06:53;35.87;;;21.27;;
10596;SDS011;5346;48.766;8.674;2023-03-01T04:09:20;35.77;;;21.00;;
10596;SDS011;5346;48.766;8.674;2023-03-01T04:11:53;34.40;;;20.30;;
10596;SDS011;5346;48.766;8.674;2023-03-01T04:14:21;32.70;;;19.13;;
10596;SDS011;5346;48.766;8.674;2023-03-01T04:16:55;34.40;;;19.57;;
10596;SDS011;5346;48.766;8.674;2023-03-01T04:19:22;32.70;;;19.63;;
10596;SDS011;5346;48.766;8.674;2023-03-01T04:21:55;34.30;;;19.57;;
10596;SDS011;5346;48.766;8.674;2023-03-01T04:24:23;34.73;;;19.87;;
10596;SDS011;5346;48.766;8.674;2023-03-01T04:26:57;34.53;;;19.67;;
10596;SDS011;5346;48.766;8.674;2023-03-01T04:29:31;34.37;;;19.83;;
10596;SDS011;5346;48.766;8.674;2023-03-01T04:31:57;32.63;;;18.70;;
10596;SDS011;5346;48.766;8.674;2023-03-01T04:34:32;29.60;;;17.70;;
10596;SDS011;5346;48.766;8.674;2023-03-01T04:36:58;32.73;;;19.27;;
10596;SDS011;5346;48.766;8.674;2023-03-01T04:39:31;31.67;;;18.47;;
10596;SDS011;5346;48.766;8.674;2023-03-01T04:42:05;32.23;;;18.80;;
10596;SDS011;5346;48.766;8.674;2023-03-01T04:44:38;33.27;;;18.57;;
10596;SDS011;5346;48.766;8.674;2023-03-01T04:47:12;35.07;;;19.10;;
10596;SDS011;5346;48.766;8.674;2023-03-01T04:49:45;30.57;;;17.93;;
10596;SDS011;5346;48.766;8.674;2023-03-01T04:52:18;30.50;;;18.77;;
10596;SDS011;5346;48.766;8.674;2023-03-01T04:54:52;29.53;;;18.37;;
10596;SDS011;5346;48.766;8.674;2023-03-01T04:57:19;29.03;;;18.97;;
10596;SDS011;5346;48.766;8.674;2023-03-01T04:59:52;31.43;;;19.30;;
10596;SDS011;5346;48.766;8.674;2023-03-01T05:02:19;34.80;;;19.77;;
10596;SDS011;5346;48.766;8.674;2023-03-01T05:04:52;31.67;;;18.70;;
10596;SDS011;5346;48.766;8.674;2023-03-01T05:07:29;31.37;;;18.23;;
10596;SDS011;5346;48.766;8.674;2023-03-01T05:10:02;27.67;;;18.57;;
10596;SDS011;5346;48.766;8.674;2023-03-01T05:12:38;33.53;;;18.47;;
10596;SDS011;5346;48.766;8.674;2023-03-01T05:15:11;32.07;;;18.93;;
10596;SDS011;5346;48.766;8.674;2023-03-01T05:17:45;29.53;;;17.50;;
10596;SDS011;5346;48.766;8.674;2023-03-01T05:20:18;30.73;;;18.13;;
10596;SDS011;5346;48.766;8.674;2023-03-01T05:22:56;27.43;;;18.13;;
10596;SDS011;5346;48.766;8.674;2023-03-01T05:25:32;30.23;;;18.07;;
10596;SDS011;5346;48.766;8.674;2023-03-01T05:28:09;29.50;;;18.60;;
10596;SDS011;5346;48.766;8.674;2023-03-01T05:30:39;30.87;;;18.90;;
10596;SDS011;5346;48.766;8.674;2023-03-01T05:33:13;27.70;;;17.13;;
10596;SDS011;5346;48.766;8.674;2023-03-01T05:35:41;26.63;;;17.90;;
10596;SDS011;5346;48.766;8.674;2023-03-01T05:38:17;28.60;;;17.67;;
10596;SDS011;5346;48.766;8.674;2023-03-01T05:40:50;31.33;;;18.70;;
10596;SDS011;5346;48.766;8.674;2023-03-01T05:43:25;30.13;;;18.57;;
10596;SDS011;5346;48.766;8.674;2023-03-01T05:45:52;28.87;;;17.90;;
10596;SDS011;5346;48.766;8.674;2023-03-01T05:48:25;28.70;;;19.30;;
10596;SDS011;5346;48.766;8.674;2023-03-01T05:51:00;30.40;;;17.67;;
10596;SDS011;5346;48.766;8.674;2023-03-01T05:53:33;26.17;;;17.33;;
10596;SDS011;5346;48.766;8.674;2023-03-01T05:56:08;29.53;;;17.73;;
10596;SDS011;5346;48.766;8.674;2023-03-01T05:58:35;33.90;;;18.83;;
10596;SDS011;5346;48.766;8.674;2023-03-01T06:01:11;30.90;;;19.30;;
10596;SDS011;5346;48.766;8.674;2023-03-01T06:03:46;32.43;;;18.20;;
10596;SDS011;5346;48.766;8.674;2023-03-01T06:06:19;32.27;;;18.57;;
10596;SDS011;5346;48.766;8.674;2023-03-01T06:08:46;31.13;;;18.63;;
10596;SDS011;5346;48.766;8.674;2023-03-01T06:11:20;28.57;;;18.13;;
10596;SDS011;5346;48.766;8.674;2023-03-01T06:13:54;32.70;;;18.77;;
10596;SDS011;5346;48.766;8.674;2023-03-01T06:16:28;31.23;;;17.57;;
10596;SDS011;5346;48.766;8.674;2023-03-01T06:18:56;25.40;;;15.97;;
10596;SDS011;5346;48.766;8.674;2023-03-01T06:21:29;33.83;;;17.90;;
10596;SDS011;5346;48.766;8.674;2023-03-01T06:24:02;26.80;;;17.77;;
10596;SDS011;5346;48.766;8.674;2023-03-01T06:26:38;26.43;;;16.53;;
10596;SDS011;5346;48.766;8.674;2023-03-01T06:29:06;26.30;;;16.97;;
10596;SDS011;5346;48.766;8.674;2023-03-01T06:31:40;23.37;;;15.57;;
10596;SDS011;5346;48.766;8.674;2023-03-01T06:34:07;30.23;;;17.07;;
10596;SDS011;5346;48.766;8.674;2023-03-01T06:36:41;26.93;;;16.40;;
10596;SDS011;5346;48.766;8.674;2023-03-01T06:39:08;29.03;;;18.17;;
10596;SDS011;5346;48.766;8.674;2023-03-01T06:41:41;30.03;;;16.50;;
10596;SDS011;5346;48.766;8.674;2023-03-01T06:44:14;28.77;;;17.30;;
10596;SDS011;5346;48.766;8.674;2023-03-01T06:46:49;24.73;;;15.93;;
10596;SDS011;5346;48.766;8.674;2023-03-01T06:49:22;31.50;;;18.63;;
10596;SDS011;5346;48.766;8.674;2023-03-01T06:51:56;30.10;;;17.70;;
10596;SDS011;5346;48.766;8.674;2023-03-01T06:54:23;26.47;;;17.13;;
10596;SDS011;5346;48.766;8.674;2023-03-01T06:56:56;27.63;;;17.87;;
10596;SDS011;5346;48.766;8.674;2023-03-01T06:59:23;26.53;;;17.30;;
10596;SDS011;5346;48.766;8.674;2023-03-01T07:01:56;28.10;;;17.43;;
10596;SDS011;5346;48.766;8.674;2023-03-01T07:04:29;25.20;;;16.10;;
10596;SDS011;5346;48.766;8.674;2023-03-01T07:06:56;27.23;;;16.43;;
10596;SDS011;5346;48.766;8.674;2023-03-01T07:09:31;28.23;;;16.57;;
10596;SDS011;5346;48.766;8.674;2023-03-01T07:12:06;23.63;;;16.33;;
10596;SDS011;5346;48.766;8.674;2023-03-01T07:14:33;29.60;;;17.83;;
10596;SDS011;5346;48.766;8.674;2023-03-01T07:17:00;27.27;;;17.20;;
10596;SDS011;5346;48.766;8.674;2023-03-01T07:19:33;30.93;;;16.40;;
10596;SDS011;5346;48.766;8.674;2023-03-01T07:22:06;26.83;;;16.73;;
10596;SDS011;5346;48.766;8.674;2023-03-01T07:24:43;25.37;;;16.33;;
10596;SDS011;5346;48.766;8.674;2023-03-01T07:27:10;27.00;;;17.17;;
10596;SDS011;5346;48.766;8.674;2023-03-01T07:29:43;26.97;;;15.90;;
10596;SDS011;5346;48.766;8.674;2023-03-01T07:32:10;24.83;;;15.80;;
10596;SDS011;5346;48.766;8.674;2023-03-01T07:34:45;26.83;;;16.10;;
10596;SDS011;5346;48.766;8.674;2023-03-01T07:37:11;24.27;;;15.63;;
10596;SDS011;5346;48.766;8.674;2023-03-01T07:39:44;25.93;;;16.67;;
10596;SDS011;5346;48.766;8.674;2023-03-01T07:42:18;22.40;;;15.00;;
10596;SDS011;5346;48.766;8.674;2023-03-01T07:44:51;25.63;;;15.57;;
10596;SDS011;5346;48.766;8.674;2023-03-01T07:47:18;23.83;;;15.83;;
10596;SDS011;5346;48.766;8.674;2023-03-01T07:49:58;25.80;;;16.40;;
10596;SDS011;5346;48.766;8.674;2023-03-01T07:52:27;25.90;;;17.63;;
10596;SDS011;5346;48.766;8.674;2023-03-01T07:55:00;24.40;;;16.00;;
10596;SDS011;5346;48.766;8.674;2023-03-01T07:57:33;25.83;;;16.17;;
10596;SDS011;5346;48.766;8.674;2023-03-01T08:00:00;28.47;;;17.53;;
10596;SDS011;5346;48.766;8.674;2023-03-01T08:02:33;25.20;;;17.20;;
10596;SDS011;5346;48.766;8.674;2023-03-01T08:05:07;26.93;;;17.40;;
10596;SDS011;5346;48.766;8.674;2023-03-01T08:07:36;25.53;;;17.10;;
10596;SDS011;5346;48.766;8.674;2023-03-01T08:10:10;26.17;;;16.70;;
10596;SDS011;5346;48.766;8.674;2023-03-01T08:12:37;24.93;;;16.33;;
10596;SDS011;5346;48.766;8.674;2023-03-01T08:15:11;22.77;;;16.27;;
10596;SDS011;5346;48.766;8.674;2023-03-01T08:17:44;26.70;;;16.47;;
10596;SDS011;5346;48.766;8.674;2023-03-01T08:20:18;24.90;;;15.97;;
10596;SDS011;5346;48.766;8.674;2023-03-01T08:22:52;22.57;;;16.63;;
10596;SDS011;5346;48.766;8.674;2023-03-01T08:25:27;27.67;;;15.80;;
10596;SDS011;5346;48.766;8.674;2023-03-01T08:28:00;21.77;;;15.87;;
10596;SDS011;5346;48.766;8.674;2023-03-01T08:30:35;22.50;;;15.90;;
10596;SDS011;5346;48.766;8.674;2023-03-01T08:33:09;24.53;;;16.47;;
10596;SDS011;5346;48.766;8.674;2023-03-01T08:35:43;22.53;;;15.83;;
10596;SDS011;5346;48.766;8.674;2023-03-01T08:38:16;24.43;;;15.87;;
10596;SDS011;5346;48.766;8.674;2023-03-01T08:40:50;27.13;;;16.07;;
10596;SDS011;5346;48.766;8.674;2023-03-01T08:43:23;22.43;;;16.20;;
10596;SDS011;5346;48.766;8.674;2023-03-01T08:45:51;22.70;;;15.00;;
10596;SDS011;5346;48.766;8.674;2023-03-01T08:48:25;23.23;;;15.97;;
10596;SDS011;5346;48.766;8.674;2023-03-01T08:51:12;22.63;;;15.53;;
10596;SDS011;5346;48.766;8.674;2023-03-01T08:53:57;23.87;;;16.20;;
10596;SDS011;5346;48.766;8.674;2023-03-01T08:56:24;23.40;;;15.67;;
10596;SDS011;5346;48.766;8.674;2023-03-01T08:58:58;23.30;;;15.43;;
10596;SDS011;5346;48.766;8.674;2023-03-01T09:01:32;22.97;;;15.93;;
10596;SDS011;5346;48.766;8.674;2023-03-01T09:04:06;23.57;;;15.87;;
10596;SDS011;5346;48.766;8.674;2023-03-01T09:06:33;22.27;;;14.73;;
10596;SDS011;5346;48.766;8.674;2023-03-01T09:09:11;22.30;;;15.20;;
10596;SDS011;5346;48.766;8.674;2023-03-01T09:11:44;22.63;;;16.40;;
10596;SDS011;5346;48.766;8.674;2023-03-01T09:14:18;25.83;;;16.30;;
10596;SDS011;5346;48.766;8.674;2023-03-01T09:16:46;24.03;;;16.23;;
10596;SDS011;5346;48.766;8.674;2023-03-01T09:19:20;22.53;;;16.27;;
10596;SDS011;5346;48.766;8.674;2023-03-01T09:21:53;23.83;;;16.00;;
10596;SDS011;5346;48.766;8.674;2023-03-01T09:24:22;22.90;;;15.67;;
10596;SDS011;5346;48.766;8.674;2023-03-01T09:26:56;20.40;;;15.67;;
10596;SDS011;5346;48.766;8.674;2023-03-01T09:29:24;25.33;;;16.03;;
10596;SDS011;5346;48.766;8.674;2023-03-01T09:31:58;22.80;;;15.93;;
10596;SDS011;5346;48.766;8.674;2023-03-01T09:34:26;22.43;;;15.53;;
10596;SDS011;5346;48.766;8.674;2023-03-01T09:37:00;24.80;;;15.47;;
10596;SDS011;5346;48.766;8.674;2023-03-01T09:39:28;24.33;;;16.60;;
10596;SDS011;5346;48.766;8.674;2023-03-01T09:42:03;24.13;;;16.17;;
10596;SDS011;5346;48.766;8.674;2023-03-01T09:44:38;24.33;;;16.60;;
10596;SDS011;5346;48.766;8.674;2023-03-01T09:47:35;20.93;;;15.97;;
10596;SDS011;5346;48.766;8.674;2023-03-01T09:50:35;24.83;;;16.53;;
10596;SDS011;5346;48.766;8.674;2023-03-01T09:53:21;27.97;;;16.73;;
10596;SDS011;5346;48.766;8.674;2023-03-01T09:56:05;23.83;;;16.67;;
10596;SDS011;5346;48.766;8.674;2023-03-01T10:04:59;24.73;;;16.53;;
10596;SDS011;5346;48.766;8.674;2023-03-01T10:07:54;22.67;;;15.17;;
10596;SDS011;5346;48.766;8.674;2023-03-01T10:10:42;21.43;;;15.07;;
10596;SDS011;5346;48.766;8.674;2023-03-01T10:13:15;22.30;;;15.90;;
10596;SDS011;5346;48.766;8.674;2023-03-01T10:15:57;23.13;;;16.37;;
10596;SDS011;5346;48.766;8.674;2023-03-01T10:18:38;20.97;;;15.93;;
10596;SDS011;5346;48.766;8.674;2023-03-01T10:21:17;22.10;;;15.80;;
10596;SDS011;5346;48.766;8.674;2023-03-01T10:23:52;22.00;;;15.50;;
10596;SDS011;5346;48.766;8.674;2023-03-01T10:26:39;22.00;;;16.47;;
10596;SDS011;5346;48.766;8.674;2023-03-01T10:29:38;23.33;;;16.17;;
10596;SDS011;5346;48.766;8.674;2023-03-01T10:32:24;21.60;;;15.70;;
10596;SDS011;5346;48.766;8.674;2023-03-01T10:35:15;24.63;;;16.60;;
10596;SDS011;5346;48.766;8.674;2023-03-01T10:38:03;21.50;;;16.47;;
10596;SDS011;5346;48.766;8.674;2023-03-01T10:40:55;23.20;;;15.93;;
10596;SDS011;5346;48.766;8.674;2023-03-01T10:46:25;21.88;;;15.85;;
10596;SDS011;5346;48.766;8.674;2023-03-01T10:49:05;20.90;;;15.35;;
10596;SDS011;5346;48.766;8.674;2023-03-01T10:51:58;21.00;;;16.52;;
10596;SDS011;5346;48.766;8.674;2023-03-01T10:54:51;17.95;;;14.70;;
10596;SDS011;5346;48.766;8.674;2023-03-01T10:57:46;19.53;;;15.30;;
10596;SDS011;5346;48.766;8.674;2023-03-01T11:00:21;19.70;;;15.67;;
10596;SDS011;5346;48.766;8.674;2023-03-01T11:08:49;20.45;;;15.82;;
10596;SDS011;5346;48.766;8.674;2023-03-01T11:11:59;22.38;;;15.93;;
10596;SDS011;5346;48.766;8.674;2023-03-01T11:14:37;22.50;;;16.05;;
10596;SDS011;5346;48.766;8.674;2023-03-01T11:17:28;21.70;;;16.42;;
10596;SDS011;5346;48.766;8.674;2023-03-01T11:20:31;23.27;;;15.57;;
10596;SDS011;5346;48.766;8.674;2023-03-01T11:23:12;21.88;;;15.43;;
10596;SDS011;5346;48.766;8.674;2023-03-01T11:25:57;21.15;;;15.75;;
10596;SDS011;5346;48.766;8.674;2023-03-01T11:29:16;22.02;;;15.90;;
10596;SDS011;5346;48.766;8.674;2023-03-01T11:32:14;21.83;;;16.58;;
10596;SDS011;5346;48.766;8.674;2023-03-01T11:34:43;22.88;;;18.00;;
10596;SDS011;5346;48.766;8.674;2023-03-01T11:58:45;19.90;;;15.48;;
10596;SDS011;5346;48.766;8.674;2023-03-01T12:26:47;21.30;;;16.45;;
10596;SDS011;5346;48.766;8.674;2023-03-01T12:29:51;22.85;;;15.57;;
10596;SDS011;5346;48.766;8.674;2023-03-01T12:42:12;18.98;;;14.77;;
10596;SDS011;5346;48.766;8.674;2023-03-01T12:45:44;19.98;;;15.80;;
10596;SDS011;5346;48.766;8.674;2023-03-01T12:48:45;21.60;;;15.23;;
10596;SDS011;5346;48.766;8.674;2023-03-01T12:51:59;21.33;;;15.23;;
10596;SDS011;5346;48.766;8.674;2023-03-01T12:54:40;18.92;;;15.68;;
10596;SDS011;5346;48.766;8.674;2023-03-01T12:57:20;17.75;;;15.25;;
10596;SDS011;5346;48.766;8.674;2023-03-01T13:03:18;22.05;;;14.85;;
10596;SDS011;5346;48.766;8.674;2023-03-01T13:06:58;21.25;;;16.13;;
10596;SDS011;5346;48.766;8.674;2023-03-01T13:18:02;18.63;;;14.32;;
10596;SDS011;5346;48.766;8.674;2023-03-01T13:20:59;19.50;;;14.32;;
10596;SDS011;5346;48.766;8.674;2023-03-01T13:23:35;19.70;;;14.85;;
10596;SDS011;5346;48.766;8.674;2023-03-01T13:26:12;19.02;;;14.82;;
10596;SDS011;5346;48.766;8.674;2023-03-01T13:28:52;18.75;;;14.70;;
10596;SDS011;5346;48.766;8.674;2023-03-01T13:34:03;19.85;;;14.38;;
10596;SDS011;5346;48.766;8.674;2023-03-01T13:36:51;21.70;;;15.40;;
10596;SDS011;5346;48.766;8.674;2023-03-01T13:39:30;24.52;;;14.95;;
10596;SDS011;5346;48.766;8.674;2023-03-01T13:42:28;19.52;;;15.55;;
10596;SDS011;5346;48.766;8.674;2023-03-01T13:45:40;20.50;;;14.82;;
10596;SDS011;5346;48.766;8.674;2023-03-01T13:48:15;19.85;;;15.32;;
10596;SDS011;5346;48.766;8.674;2023-03-01T13:51:09;17.63;;;14.52;;
10596;SDS011;5346;48.766;8.674;2023-03-01T13:53:53;17.65;;;14.15;;
10596;SDS011;5346;48.766;8.674;2023-03-01T13:56:36;18.52;;;14.75;;
10596;SDS011;5346;48.766;8.674;2023-03-01T13:59:05;19.08;;;14.60;;
10596;SDS011;5346;48.766;8.674;2023-03-01T14:01:59;19.27;;;15.05;;
10596;SDS011;5346;48.766;8.674;2023-03-01T14:04:34;18.45;;;14.82;;
10596;SDS011;5346;48.766;8.674;2023-03-01T14:07:18;17.20;;;14.60;;
10596;SDS011;5346;48.766;8.674;2023-03-01T14:09:48;19.48;;;15.93;;
10596;SDS011;5346;48.766;8.674;2023-03-01T14:12:43;21.98;;;15.77;;
10596;SDS011;5346;48.766;8.674;2023-03-01T14:15:49;20.85;;;15.18;;
10596;SDS011;5346;48.766;8.674;2023-03-01T14:21:30;19.95;;;15.30;;
10596;SDS011;5346;48.766;8.674;2023-03-01T14:24:04;22.92;;;16.13;;
10596;SDS011;5346;48.766;8.674;2023-03-01T14:26:48;24.10;;;15.88;;
10596;SDS011;5346;48.766;8.674;2023-03-01T14:29:34;24.38;;;16.90;;
10596;SDS011;5346;48.766;8.674;2023-03-01T14:32:20;23.13;;;15.68;;
10596;SDS011;5346;48.766;8.674;2023-03-01T14:34:57;19.88;;;14.88;;
10596;SDS011;5346;48.766;8.674;2023-03-01T14:37:33;22.65;;;15.57;;
10596;SDS011;5346;48.766;8.674;2023-03-01T14:40:19;24.20;;;16.52;;
10596;SDS011;5346;48.766;8.674;2023-03-01T14:43:13;18.80;;;14.85;;
10596;SDS011;5346;48.766;8.674;2023-03-01T14:45:48;21.45;;;16.17;;
10596;SDS011;5346;48.766;8.674;2023-03-01T14:48:24;21.00;;;16.08;;
10596;SDS011;5346;48.766;8.674;2023-03-01T14:50:59;22.50;;;16.10;;
10596;SDS011;5346;48.766;8.674;2023-03-01T14:53:34;19.50;;;15.30;;
10596;SDS011;5346;48.766;8.674;2023-03-01T14:56:16;20.27;;;16.10;;
10596;SDS011;5346;48.766;8.674;2023-03-01T14:58:51;21.45;;;15.20;;
10596;SDS011;5346;48.766;8.674;2023-03-01T15:01:20;23.17;;;16.40;;
10596;SDS011;5346;48.766;8.674;2023-03-01T15:03:55;20.50;;;15.30;;
10596;SDS011;5346;48.766;8.674;2023-03-01T15:06:30;23.73;;;17.13;;
10596;SDS011;5346;48.766;8.674;2023-03-01T15:09:04;19.88;;;15.57;;
10596;SDS011;5346;48.766;8.674;2023-03-01T15:11:32;21.85;;;16.83;;
10596;SDS011;5346;48.766;8.674;2023-03-01T15:14:25;23.57;;;16.47;;
10596;SDS011;5346;48.766;8.674;2023-03-01T15:16:59;20.33;;;14.83;;
10596;SDS011;5346;48.766;8.674;2023-03-01T15:19:33;22.53;;;16.03;;
10596;SDS011;5346;48.766;8.674;2023-03-01T15:22:17;24.83;;;16.23;;
10596;SDS011;5346;48.766;8.674;2023-03-01T15:25:16;24.90;;;16.00;;
10596;SDS011;5346;48.766;8.674;2023-03-01T15:28:17;24.67;;;16.90;;
10596;SDS011;5346;48.766;8.674;2023-03-01T15:31:15;23.03;;;16.30;;
10596;SDS011;5346;48.766;8.674;2023-03-01T15:34:23;21.80;;;15.80;;
10596;SDS011;5346;48.766;8.674;2023-03-01T15:40:48;24.17;;;16.50;;
10596;SDS011;5346;48.766;8.674;2023-03-01T15:49:04;23.80;;;15.80;;
10596;SDS011;5346;48.766;8.674;2023-03-01T15:51:57;23.27;;;14.20;;
10596;SDS011;5346;48.766;8.674;2023-03-01T15:54:31;24.30;;;15.77;;
10596;SDS011;5346;48.766;8.674;2023-03-01T15:57:10;21.43;;;15.70;;
10596;SDS011;5346;48.766;8.674;2023-03-01T15:59:40;22.17;;;15.70;;
10596;SDS011;5346;48.766;8.674;2023-03-01T16:02:18;25.20;;;16.10;;
10596;SDS011;5346;48.766;8.674;2023-03-01T16:08:16;25.57;;;16.20;;
10596;SDS011;5346;48.766;8.674;2023-03-01T16:10:50;22.27;;;15.80;;
10596;SDS011;5346;48.766;8.674;2023-03-01T16:13:29;23.53;;;16.57;;
10596;SDS011;5346;48.766;8.674;2023-03-01T16:15:58;29.53;;;17.43;;
10596;SDS011;5346;48.766;8.674;2023-03-01T16:18:36;24.60;;;16.17;;
10596;SDS011;5346;48.766;8.674;2023-03-01T16:21:05;23.97;;;16.43;;
10596;SDS011;5346;48.766;8.674;2023-03-01T16:23:44;24.83;;;15.67;;
10596;SDS011;5346;48.766;8.674;2023-03-01T16:26:12;26.80;;;17.53;;
10596;SDS011;5346;48.766;8.674;2023-03-01T16:28:47;27.23;;;16.03;;
10596;SDS011;5346;48.766;8.674;2023-03-01T16:31:17;23.30;;;15.30;;
10596;SDS011;5346;48.766;8.674;2023-03-01T16:33:45;23.00;;;15.33;;
10596;SDS011;5346;48.766;8.674;2023-03-01T16:36:23;26.10;;;15.57;;
10596;SDS011;5346;48.766;8.674;2023-03-01T16:38:51;23.03;;;15.60;;
10596;SDS011;5346;48.766;8.674;2023-03-01T16:41:25;27.67;;;16.17;;
10596;SDS011;5346;48.766;8.674;2023-03-01T16:43:55;29.00;;;16.60;;
10596;SDS011;5346;48.766;8.674;2023-03-01T16:46:29;26.93;;;16.90;;
10596;SDS011;5346;48.766;8.674;2023-03-01T16:48:57;27.23;;;16.77;;
10596;SDS011;5346;48.766;8.674;2023-03-01T16:51:38;27.27;;;16.50;;
10596;SDS011;5346;48.766;8.674;2023-03-01T16:54:05;26.87;;;15.60;;
10596;SDS011;5346;48.766;8.674;2023-03-01T16:56:39;24.90;;;15.97;;
10596;SDS011;5346;48.766;8.674;2023-03-01T16:59:15;23.87;;;15.23;;
10596;SDS011;5346;48.766;8.674;2023-03-01T17:02:04;27.30;;;16.43;;
10596;SDS011;5346;48.766;8.674;2023-03-01T17:05:01;27.57;;;17.33;;
10596;SDS011;5346;48.766;8.674;2023-03-01T17:07:56;27.43;;;16.80;;
10596;SDS011;5346;48.766;8.674;2023-03-01T17:10:52;28.07;;;16.53;;
10596;SDS011;5346;48.766;8.674;2023-03-01T17:13:22;28.90;;;16.93;;
10596;SDS011;5346;48.766;8.674;2023-03-01T17:15:56;28.13;;;16.83;;
10596;SDS011;5346;48.766;8.674;2023-03-01T17:18:31;28.60;;;17.70;;
10596;SDS011;5346;48.766;8.674;2023-03-01T17:21:06;27.13;;;16.70;;